LNG Dream — C6VO5 — position and weather

sailwx.info

Track history (hours):
 
Tides and Currents Weather Stations Pressure Air Temp Water Temp Dewpoint Dewpoint Depression Visibility Wind Speed Wind Dir Waves Ship Positions

LNG Dream

Last reported at 2016-May-21 07:07 UTC. Time now 2016-May-24 06:05 UTC.
Position N 33°50' E 134°56'.

Length 289.6 m; beam 49 m.

Type: Ship (hazmat cat A). MMSI: 309065000.

Date/timePositionNaut miles runAvg speedWind from/ knotsBaromVisibWave heightAir tempDewpointWater temp
2016-May-21 07:07N 33°50' E 134°56'915.1
2016-May-21 06:33N 33°58' E 134°55'1514.8
2016-May-21 05:33N 34°13' E 134°57'1515.0
2016-May-21 04:34N 34°27' E 135°04'9 9.4
2016-May-21 03:33N 34°36' E 135°02'1312.7
2016-May-21 02:32N 34°33' E 134°47'1110.7
2016-May-21 01:27N 34°43' E 134°41'3 0.1
2016-May-20 01:20N 34°46' E 134°41'6 7.2
2016-May-20 00:33N 34°40' E 134°41'9 8.7
2016-May-19 23:30N 34°34' E 134°49'1313.2
2016-May-19 22:33N 34°36' E 135°04'6 5.9
2016-May-19 21:33N 34°30' E 135°07'1111.2
2016-May-19 20:33N 34°20' E 135°01'1211.5
2016-May-19 19:33N 34°09' E 134°60'9 9.1
2016-May-19 18:33N 33°60' E 134°59'1410.3
2016-May-19 17:10N 33°45' E 134°60'  
Track history (hours):
 
Tides and Currents Weather Stations Pressure Air Temp Water Temp Dewpoint Dewpoint Depression Visibility Wind Speed Wind Dir Waves Ship Positions

LNG Dream

Last reported at 2016-May-21 07:07 UTC. Time now 2016-May-24 06:05 UTC.
Position N 33°50' E 134°56'.

Length 289.6 m; beam 49 m.

Type: Ship (hazmat cat A). MMSI: 309065000.

Date/timePositionNaut miles runAvg speedWind from/ knotsBaromVisibWave heightAir tempDewpointWater temp
2016-May-21 07:07N 33°50' E 134°56'915.1
2016-May-21 06:33N 33°58' E 134°55'1514.8
2016-May-21 05:33N 34°13' E 134°57'1515.0
2016-May-21 04:34N 34°27' E 135°04'9 9.4
2016-May-21 03:33N 34°36' E 135°02'1312.7
2016-May-21 02:32N 34°33' E 134°47'1110.7
2016-May-21 01:27N 34°43' E 134°41'3 0.1
2016-May-20 01:20N 34°46' E 134°41'6 7.2
2016-May-20 00:33N 34°40' E 134°41'9 8.7
2016-May-19 23:30N 34°34' E 134°49'1313.2
2016-May-19 22:33N 34°36' E 135°04'6 5.9
2016-May-19 21:33N 34°30' E 135°07'1111.2
2016-May-19 20:33N 34°20' E 135°01'1211.5
2016-May-19 19:33N 34°09' E 134°60'9 9.1
2016-May-19 18:33N 33°60' E 134°59'1410.3
2016-May-19 17:10N 33°45' E 134°60'  

Dump ship's entire track history